sensor_id;sensor_type;location;lat;lon;timestamp;pressure;altitude;pressure_sealevel;temperature;humidity
9257;BME280;4665;51.368;6.782;2023-04-23T00:00:37;100552.53;;;10.09;100.00
9257;BME280;4665;51.368;6.782;2023-04-23T00:03:05;100557.38;;;10.14;100.00
9257;BME280;4665;51.368;6.782;2023-04-23T00:05:35;100541.69;;;10.02;100.00
9257;BME280;4665;51.368;6.782;2023-04-23T00:08:01;100559.75;;;10.17;100.00
9257;BME280;4665;51.368;6.782;2023-04-23T00:10:28;100551.72;;;10.08;100.00
9257;BME280;4665;51.368;6.782;2023-04-23T00:12:53;100543.88;;;10.07;100.00
9257;BME280;4665;51.368;6.782;2023-04-23T00:15:19;100533.69;;;10.02;100.00
9257;BME280;4665;51.368;6.782;2023-04-23T00:17:46;100553.06;;;10.13;100.00
9257;BME280;4665;51.368;6.782;2023-04-23T00:20:12;100527.53;;;10.02;100.00
9257;BME280;4665;51.368;6.782;2023-04-23T00:22:38;100528.69;;;9.99;100.00
9257;BME280;4665;51.368;6.782;2023-04-23T00:25:04;100542.31;;;9.96;100.00
9257;BME280;4665;51.368;6.782;2023-04-23T00:27:29;100531.97;;;9.93;100.00
9257;BME280;4665;51.368;6.782;2023-04-23T00:29:54;100543.63;;;9.92;100.00
9257;BME280;4665;51.368;6.782;2023-04-23T00:32:20;100543.94;;;9.89;100.00
9257;BME280;4665;51.368;6.782;2023-04-23T00:34:46;100560.63;;;9.99;100.00
9257;BME280;4665;51.368;6.782;2023-04-23T00:37:13;100537.25;;;9.85;100.00
9257;BME280;4665;51.368;6.782;2023-04-23T00:39:38;100538.63;;;9.89;100.00
9257;BME280;4665;51.368;6.782;2023-04-23T00:42:05;100522.94;;;9.86;100.00
9257;BME280;4665;51.368;6.782;2023-04-23T00:44:36;100540.63;;;9.95;100.00
9257;BME280;4665;51.368;6.782;2023-04-23T00:47:02;100530.25;;;9.84;100.00
9257;BME280;4665;51.368;6.782;2023-04-23T00:49:28;100530.09;;;9.85;100.00
9257;BME280;4665;51.368;6.782;2023-04-23T00:51:54;100531.72;;;9.78;100.00
9257;BME280;4665;51.368;6.782;2023-04-23T00:54:19;100542.78;;;9.92;100.00
9257;BME280;4665;51.368;6.782;2023-04-23T00:56:47;100536.25;;;9.86;100.00
9257;BME280;4665;51.368;6.782;2023-04-23T00:59:12;100548.25;;;9.90;100.00
9257;BME280;4665;51.368;6.782;2023-04-23T01:01:38;100547.44;;;9.89;100.00
9257;BME280;4665;51.368;6.782;2023-04-23T01:04:05;100526.53;;;9.77;100.00
9257;BME280;4665;51.368;6.782;2023-04-23T01:06:31;100546.44;;;9.90;100.00
9257;BME280;4665;51.368;6.782;2023-04-23T01:08:56;100554.25;;;9.92;100.00
9257;BME280;4665;51.368;6.782;2023-04-23T01:11:22;100518.06;;;9.73;100.00
9257;BME280;4665;51.368;6.782;2023-04-23T01:13:49;100524.88;;;9.76;100.00
9257;BME280;4665;51.368;6.782;2023-04-23T01:16:14;100531.34;;;9.73;100.00
9257;BME280;4665;51.368;6.782;2023-04-23T01:18:40;100523.84;;;9.68;100.00
9257;BME280;4665;51.368;6.782;2023-04-23T01:21:06;100517.00;;;9.66;100.00
9257;BME280;4665;51.368;6.782;2023-04-23T01:23:32;100513.19;;;9.68;100.00
9257;BME280;4665;51.368;6.782;2023-04-23T01:25:58;100502.69;;;9.67;100.00
9257;BME280;4665;51.368;6.782;2023-04-23T01:28:23;100512.88;;;9.72;100.00
9257;BME280;4665;51.368;6.782;2023-04-23T01:30:49;100500.22;;;9.65;100.00
9257;BME280;4665;51.368;6.782;2023-04-23T01:33:15;100522.72;;;9.79;100.00
9257;BME280;4665;51.368;6.782;2023-04-23T01:35:42;100503.53;;;9.67;100.00
9257;BME280;4665;51.368;6.782;2023-04-23T01:38:09;100507.50;;;9.63;100.00
9257;BME280;4665;51.368;6.782;2023-04-23T01:40:36;100492.50;;;9.54;100.00
9257;BME280;4665;51.368;6.782;2023-04-23T01:43:02;100492.50;;;9.54;100.00
9257;BME280;4665;51.368;6.782;2023-04-23T01:45:29;100496.94;;;9.54;100.00
9257;BME280;4665;51.368;6.782;2023-04-23T01:47:55;100493.63;;;9.52;100.00
9257;BME280;4665;51.368;6.782;2023-04-23T01:50:20;100493.78;;;9.50;100.00
9257;BME280;4665;51.368;6.782;2023-04-23T01:52:49;100507.81;;;9.60;100.00
9257;BME280;4665;51.368;6.782;2023-04-23T01:55:14;100514.63;;;9.63;100.00
9257;BME280;4665;51.368;6.782;2023-04-23T01:57:40;100523.75;;;9.60;100.00
9257;BME280;4665;51.368;6.782;2023-04-23T02:00:09;100512.06;;;9.53;100.00
9257;BME280;4665;51.368;6.782;2023-04-23T02:02:36;100513.06;;;9.52;100.00
9257;BME280;4665;51.368;6.782;2023-04-23T02:05:02;100517.09;;;9.56;100.00
9257;BME280;4665;51.368;6.782;2023-04-23T02:07:31;100517.09;;;9.56;100.00
9257;BME280;4665;51.368;6.782;2023-04-23T02:09:57;100504.50;;;9.40;100.00
9257;BME280;4665;51.368;6.782;2023-04-23T02:12:22;100494.63;;;9.33;100.00
9257;BME280;4665;51.368;6.782;2023-04-23T02:14:48;100528.66;;;9.47;100.00
9257;BME280;4665;51.368;6.782;2023-04-23T02:17:13;100521.28;;;9.41;100.00
9257;BME280;4665;51.368;6.782;2023-04-23T02:19:39;100491.91;;;9.24;100.00
9257;BME280;4665;51.368;6.782;2023-04-23T02:22:05;100498.59;;;9.29;100.00
9257;BME280;4665;51.368;6.782;2023-04-23T02:24:31;100486.22;;;9.19;100.00
9257;BME280;4665;51.368;6.782;2023-04-23T02:26:57;100521.19;;;9.33;100.00
9257;BME280;4665;51.368;6.782;2023-04-23T02:29:23;100486.00;;;9.13;100.00
9257;BME280;4665;51.368;6.782;2023-04-23T02:31:48;100482.09;;;9.07;100.00
9257;BME280;4665;51.368;6.782;2023-04-23T02:34:14;100487.41;;;9.07;100.00
9257;BME280;4665;51.368;6.782;2023-04-23T02:36:39;100483.09;;;9.06;100.00
9257;BME280;4665;51.368;6.782;2023-04-23T02:39:04;100482.41;;;9.04;100.00
9257;BME280;4665;51.368;6.782;2023-04-23T02:41:30;100485.38;;;9.01;100.00
9257;BME280;4665;51.368;6.782;2023-04-23T02:43:55;100499.28;;;9.13;100.00
9257;BME280;4665;51.368;6.782;2023-04-23T02:46:22;100500.94;;;9.14;100.00
9257;BME280;4665;51.368;6.782;2023-04-23T02:48:47;100504.88;;;9.10;100.00
9257;BME280;4665;51.368;6.782;2023-04-23T02:51:13;100504.75;;;9.11;100.00
9257;BME280;4665;51.368;6.782;2023-04-23T02:53:39;100505.75;;;9.10;100.00
9257;BME280;4665;51.368;6.782;2023-04-23T02:56:04;100484.84;;;8.97;100.00
9257;BME280;4665;51.368;6.782;2023-04-23T02:58:31;100503.75;;;9.12;100.00
9257;BME280;4665;51.368;6.782;2023-04-23T03:00:57;100496.63;;;9.13;100.00
9257;BME280;4665;51.368;6.782;2023-04-23T03:03:23;100491.44;;;9.11;100.00
9257;BME280;4665;51.368;6.782;2023-04-23T03:05:51;100477.56;;;8.99;100.00
9257;BME280;4665;51.368;6.782;2023-04-23T03:08:16;100480.59;;;9.04;100.00
9257;BME280;4665;51.368;6.782;2023-04-23T03:10:42;100495.94;;;9.11;100.00
9257;BME280;4665;51.368;6.782;2023-04-23T03:13:07;100479.44;;;9.07;100.00
9257;BME280;4665;51.368;6.782;2023-04-23T03:15:33;100482.41;;;9.04;100.00
9257;BME280;4665;51.368;6.782;2023-04-23T03:17:58;100475.44;;;9.03;100.00
9257;BME280;4665;51.368;6.782;2023-04-23T03:20:26;100488.66;;;9.13;100.00
9257;BME280;4665;51.368;6.782;2023-04-23T03:22:51;100467.16;;;9.06;100.00
9257;BME280;4665;51.368;6.782;2023-04-23T03:25:17;100477.78;;;9.06;100.00
9257;BME280;4665;51.368;6.782;2023-04-23T03:27:42;100460.47;;;9.02;100.00
9257;BME280;4665;51.368;6.782;2023-04-23T03:30:09;100457.81;;;9.02;100.00
9257;BME280;4665;51.368;6.782;2023-04-23T03:32:35;100469.38;;;9.11;100.00
9257;BME280;4665;51.368;6.782;2023-04-23T03:35:00;100472.53;;;9.14;100.00
9257;BME280;4665;51.368;6.782;2023-04-23T03:37:26;100460.69;;;9.09;100.00
9257;BME280;4665;51.368;6.782;2023-04-23T03:39:51;100473.84;;;9.10;100.00
9257;BME280;4665;51.368;6.782;2023-04-23T03:42:17;100465.34;;;9.06;100.00
9257;BME280;4665;51.368;6.782;2023-04-23T03:44:42;100478.84;;;9.13;100.00
9257;BME280;4665;51.368;6.782;2023-04-23T03:47:08;100458.13;;;8.99;100.00
9257;BME280;4665;51.368;6.782;2023-04-23T03:49:33;100451.81;;;9.00;100.00
9257;BME280;4665;51.368;6.782;2023-04-23T03:51:58;100464.38;;;9.08;100.00
9257;BME280;4665;51.368;6.782;2023-04-23T03:54:24;100460.84;;;9.07;100.00
9257;BME280;4665;51.368;6.782;2023-04-23T03:56:50;100452.19;;;9.05;100.00
9257;BME280;4665;51.368;6.782;2023-04-23T03:59:16;100446.69;;;8.98;100.00
9257;BME280;4665;51.368;6.782;2023-04-23T04:01:42;100452.38;;;9.03;100.00
9257;BME280;4665;51.368;6.782;2023-04-23T04:04:07;100457.50;;;9.05;100.00
9257;BME280;4665;51.368;6.782;2023-04-23T04:06:33;100448.78;;;8.95;100.00
9257;BME280;4665;51.368;6.782;2023-04-23T04:08:58;100457.13;;;9.00;100.00
9257;BME280;4665;51.368;6.782;2023-04-23T04:11:24;100456.63;;;8.96;100.00
9257;BME280;4665;51.368;6.782;2023-04-23T04:13:50;100450.75;;;8.93;100.00
9257;BME280;4665;51.368;6.782;2023-04-23T04:16:15;100441.28;;;8.90;100.00
9257;BME280;4665;51.368;6.782;2023-04-23T04:18:41;100456.16;;;9.01;100.00
9257;BME280;4665;51.368;6.782;2023-04-23T04:21:06;100469.50;;;9.09;100.00
9257;BME280;4665;51.368;6.782;2023-04-23T04:23:31;100461.53;;;9.09;100.00
9257;BME280;4665;51.368;6.782;2023-04-23T04:25:57;100451.81;;;9.00;100.00
9257;BME280;4665;51.368;6.782;2023-04-23T04:28:24;100464.88;;;9.11;100.00
9257;BME280;4665;51.368;6.782;2023-04-23T04:30:51;100451.81;;;9.00;100.00
9257;BME280;4665;51.368;6.782;2023-04-23T04:33:18;100459.03;;;9.08;100.00
9257;BME280;4665;51.368;6.782;2023-04-23T04:35:44;100456.84;;;9.03;100.00
9257;BME280;4665;51.368;6.782;2023-04-23T04:38:10;100463.91;;;9.12;100.00
9257;BME280;4665;51.368;6.782;2023-04-23T04:40:36;100455.97;;;9.02;100.00
9257;BME280;4665;51.368;6.782;2023-04-23T04:43:01;100464.88;;;9.11;100.00
9257;BME280;4665;51.368;6.782;2023-04-23T04:45:29;100455.84;;;9.04;100.00
9257;BME280;4665;51.368;6.782;2023-04-23T04:47:55;100444.84;;;8.99;100.00
9257;BME280;4665;51.368;6.782;2023-04-23T04:50:20;100469.50;;;9.09;100.00
9257;BME280;4665;51.368;6.782;2023-04-23T04:52:46;100473.00;;;9.10;100.00
9257;BME280;4665;51.368;6.782;2023-04-23T04:55:11;100484.31;;;9.12;100.00
9257;BME280;4665;51.368;6.782;2023-04-23T04:57:37;100461.31;;;9.02;100.00
9257;BME280;4665;51.368;6.782;2023-04-23T05:00:21;100473.53;;;9.13;100.00
9257;BME280;4665;51.368;6.782;2023-04-23T05:02:49;100491.91;;;9.24;100.00
9257;BME280;4665;51.368;6.782;2023-04-23T05:05:14;100488.25;;;9.25;100.00
9257;BME280;4665;51.368;6.782;2023-04-23T05:07:39;100493.28;;;9.29;100.00
9257;BME280;4665;51.368;6.782;2023-04-23T05:10:05;100490.31;;;9.32;100.00
9257;BME280;4665;51.368;6.782;2023-04-23T05:12:31;100482.69;;;9.37;100.00
9257;BME280;4665;51.368;6.782;2023-04-23T05:14:56;100476.09;;;9.41;100.00
9257;BME280;4665;51.368;6.782;2023-04-23T05:17:22;100476.47;;;9.46;100.00
9257;BME280;4665;51.368;6.782;2023-04-23T05:19:47;100497.94;;;9.53;100.00
9257;BME280;4665;51.368;6.782;2023-04-23T05:22:13;100500.00;;;9.59;100.00
9257;BME280;4665;51.368;6.782;2023-04-23T05:24:38;100463.69;;;9.50;100.00
9257;BME280;4665;51.368;6.782;2023-04-23T05:27:04;100491.38;;;9.65;100.00
9257;BME280;4665;51.368;6.782;2023-04-23T05:29:30;100495.72;;;9.66;100.00
9257;BME280;4665;51.368;6.782;2023-04-23T05:31:55;100487.16;;;9.54;100.00
9257;BME280;4665;51.368;6.782;2023-04-23T05:34:21;100471.91;;;9.56;100.00
9257;BME280;4665;51.368;6.782;2023-04-23T05:36:46;100490.44;;;9.74;100.00
9257;BME280;4665;51.368;6.782;2023-04-23T05:39:11;100462.59;;;9.60;100.00
9257;BME280;4665;51.368;6.782;2023-04-23T05:41:37;100466.75;;;9.63;100.00
9257;BME280;4665;51.368;6.782;2023-04-23T05:44:02;100461.97;;;9.66;100.00
9257;BME280;4665;51.368;6.782;2023-04-23T05:46:28;100460.69;;;9.71;100.00
9257;BME280;4665;51.368;6.782;2023-04-23T05:48:53;100458.84;;;9.71;100.00
9257;BME280;4665;51.368;6.782;2023-04-23T05:51:18;100450.53;;;9.74;100.00
9257;BME280;4665;51.368;6.782;2023-04-23T05:53:44;100481.75;;;9.90;100.00
9257;BME280;4665;51.368;6.782;2023-04-23T05:56:09;100482.28;;;9.94;100.00
9257;BME280;4665;51.368;6.782;2023-04-23T05:58:35;100489.94;;;9.97;100.00
9257;BME280;4665;51.368;6.782;2023-04-23T06:01:00;100462.63;;;9.86;100.00
9257;BME280;4665;51.368;6.782;2023-04-23T06:03:27;100463.09;;;9.82;100.00
9257;BME280;4665;51.368;6.782;2023-04-23T06:05:52;100475.59;;;9.89;100.00
9257;BME280;4665;51.368;6.782;2023-04-23T06:08:17;100464.25;;;9.87;100.00
9257;BME280;4665;51.368;6.782;2023-04-23T06:10:45;100478.13;;;9.99;100.00
9257;BME280;4665;51.368;6.782;2023-04-23T06:13:11;100487.16;;;10.06;100.00
9257;BME280;4665;51.368;6.782;2023-04-23T06:15:36;100480.00;;;10.07;100.00
9257;BME280;4665;51.368;6.782;2023-04-23T06:18:02;100484.00;;;10.11;100.00
9257;BME280;4665;51.368;6.782;2023-04-23T06:20:28;100465.84;;;10.06;100.00
9257;BME280;4665;51.368;6.782;2023-04-23T06:22:53;100487.22;;;10.23;100.00
9257;BME280;4665;51.368;6.782;2023-04-23T06:25:19;100477.88;;;10.19;100.00
9257;BME280;4665;51.368;6.782;2023-04-23T06:27:44;100485.63;;;10.30;100.00
9257;BME280;4665;51.368;6.782;2023-04-23T06:30:10;100481.66;;;10.34;100.00
9257;BME280;4665;51.368;6.782;2023-04-23T06:32:36;100467.38;;;10.35;100.00
9257;BME280;4665;51.368;6.782;2023-04-23T06:35:01;100464.72;;;10.35;100.00
9257;BME280;4665;51.368;6.782;2023-04-23T06:37:26;100480.69;;;10.43;100.00
9257;BME280;4665;51.368;6.782;2023-04-23T06:39:56;100479.25;;;10.49;100.00
9257;BME280;4665;51.368;6.782;2023-04-23T06:42:22;100460.88;;;10.38;100.00
9257;BME280;4665;51.368;6.782;2023-04-23T06:44:47;100455.56;;;10.46;100.00
9257;BME280;4665;51.368;6.782;2023-04-23T06:47:13;100458.75;;;10.58;100.00
9257;BME280;4665;51.368;6.782;2023-04-23T06:49:39;100443.13;;;10.55;100.00
9257;BME280;4665;51.368;6.782;2023-04-23T06:52:04;100451.63;;;10.66;100.00
9257;BME280;4665;51.368;6.782;2023-04-23T06:54:30;100438.66;;;10.71;100.00
9257;BME280;4665;51.368;6.782;2023-04-23T06:56:55;100437.19;;;10.77;100.00
9257;BME280;4665;51.368;6.782;2023-04-23T06:59:21;100449.34;;;10.88;100.00
9257;BME280;4665;51.368;6.782;2023-04-23T07:01:47;100444.88;;;11.05;100.00
9257;BME280;4665;51.368;6.782;2023-04-23T07:04:12;100461.56;;;11.23;100.00
9257;BME280;4665;51.368;6.782;2023-04-23T07:06:38;100445.88;;;11.28;100.00
9257;BME280;4665;51.368;6.782;2023-04-23T07:09:03;100433.38;;;11.29;100.00
9257;BME280;4665;51.368;6.782;2023-04-23T07:11:29;100436.19;;;11.44;100.00
9257;BME280;4665;51.368;6.782;2023-04-23T07:13:56;100436.81;;;11.70;100.00
9257;BME280;4665;51.368;6.782;2023-04-23T07:16:22;100443.13;;;11.94;100.00
9257;BME280;4665;51.368;6.782;2023-04-23T07:18:48;100430.75;;;12.01;100.00
9257;BME280;4665;51.368;6.782;2023-04-23T07:21:14;100418.00;;;12.19;100.00
9257;BME280;4665;51.368;6.782;2023-04-23T07:23:39;100402.94;;;12.27;100.00
9257;BME280;4665;51.368;6.782;2023-04-23T07:26:05;100389.88;;;12.32;100.00
9257;BME280;4665;51.368;6.782;2023-04-23T07:28:30;100398.13;;;12.53;100.00
9257;BME280;4665;51.368;6.782;2023-04-23T07:30:57;100381.56;;;12.58;100.00
9257;BME280;4665;51.368;6.782;2023-04-23T07:33:23;100388.53;;;12.67;100.00
9257;BME280;4665;51.368;6.782;2023-04-23T07:35:49;100387.63;;;12.75;100.00
9257;BME280;4665;51.368;6.782;2023-04-23T07:38:15;100400.31;;;12.96;100.00
9257;BME280;4665;51.368;6.782;2023-04-23T07:40:40;100385.06;;;13.04;100.00
9257;BME280;4665;51.368;6.782;2023-04-23T07:43:05;100374.81;;;13.08;100.00
9257;BME280;4665;51.368;6.782;2023-04-23T07:45:31;100384.03;;;13.29;100.00
9257;BME280;4665;51.368;6.782;2023-04-23T07:47:56;100380.97;;;13.32;100.00
9257;BME280;4665;51.368;6.782;2023-04-23T07:50:23;100370.28;;;13.32;100.00
9257;BME280;4665;51.368;6.782;2023-04-23T07:52:48;100377.03;;;13.42;100.00
9257;BME280;4665;51.368;6.782;2023-04-23T07:55:14;100390.50;;;13.64;100.00
9257;BME280;4665;51.368;6.782;2023-04-23T07:57:40;100366.16;;;13.59;100.00
9257;BME280;4665;51.368;6.782;2023-04-23T08:00:06;100373.34;;;13.73;100.00
9257;BME280;4665;51.368;6.782;2023-04-23T08:02:34;100377.84;;;13.87;100.00
9257;BME280;4665;51.368;6.782;2023-04-23T08:05:00;100381.09;;;13.98;100.00
9257;BME280;4665;51.368;6.782;2023-04-23T08:07:25;100380.28;;;13.97;100.00
9257;BME280;4665;51.368;6.782;2023-04-23T08:09:50;100367.81;;;13.89;100.00
9257;BME280;4665;51.368;6.782;2023-04-23T08:12:17;100369.75;;;13.96;100.00
9257;BME280;4665;51.368;6.782;2023-04-23T08:14:43;100378.28;;;14.21;100.00
9257;BME280;4665;51.368;6.782;2023-04-23T08:17:08;100370.13;;;14.29;100.00
9257;BME280;4665;51.368;6.782;2023-04-23T08:19:34;100364.22;;;14.34;100.00
9257;BME280;4665;51.368;6.782;2023-04-23T08:21:59;100339.72;;;14.37;100.00
9257;BME280;4665;51.368;6.782;2023-04-23T08:24:24;100339.16;;;14.41;100.00
9257;BME280;4665;51.368;6.782;2023-04-23T08:26:51;100360.66;;;14.48;100.00
9257;BME280;4665;51.368;6.782;2023-04-23T08:29:17;100337.31;;;14.42;100.00
9257;BME280;4665;51.368;6.782;2023-04-23T08:31:43;100343.44;;;14.57;100.00
9257;BME280;4665;51.368;6.782;2023-04-23T08:34:08;100346.91;;;14.72;100.00
9257;BME280;4665;51.368;6.782;2023-04-23T08:36:33;100353.50;;;14.70;100.00
9257;BME280;4665;51.368;6.782;2023-04-23T08:38:59;100366.06;;;14.69;100.00
9257;BME280;4665;51.368;6.782;2023-04-23T08:41:31;100360.63;;;14.84;100.00
9257;BME280;4665;51.368;6.782;2023-04-23T08:46:44;100348.41;;;15.03;100.00
9257;BME280;4665;51.368;6.782;2023-04-23T08:49:14;100360.47;;;15.14;100.00
9257;BME280;4665;51.368;6.782;2023-04-23T08:51:45;100366.66;;;15.14;100.00
9257;BME280;4665;51.368;6.782;2023-04-23T08:54:15;100367.75;;;15.20;100.00
9257;BME280;4665;51.368;6.782;2023-04-23T08:56:43;100368.34;;;15.15;100.00
9257;BME280;4665;51.368;6.782;2023-04-23T08:59:09;100369.22;;;15.23;100.00
9257;BME280;4665;51.368;6.782;2023-04-23T09:01:35;100363.44;;;15.26;100.00
9257;BME280;4665;51.368;6.782;2023-04-23T09:04:01;100369.69;;;15.33;100.00
9257;BME280;4665;51.368;6.782;2023-04-23T09:06:28;100356.91;;;15.35;100.00
9257;BME280;4665;51.368;6.782;2023-04-23T09:08:54;100354.94;;;15.50;100.00
9257;BME280;4665;51.368;6.782;2023-04-23T09:11:22;100342.44;;;15.36;100.00
9257;BME280;4665;51.368;6.782;2023-04-23T09:13:48;100328.97;;;15.23;100.00
9257;BME280;4665;51.368;6.782;2023-04-23T09:16:13;100325.75;;;15.34;100.00
9257;BME280;4665;51.368;6.782;2023-04-23T09:18:39;100325.97;;;15.39;100.00
9257;BME280;4665;51.368;6.782;2023-04-23T09:21:05;100335.66;;;15.40;100.00
9257;BME280;4665;51.368;6.782;2023-04-23T09:23:31;100350.34;;;15.44;100.00
9257;BME280;4665;51.368;6.782;2023-04-23T09:25:56;100333.44;;;15.44;100.00
9257;BME280;4665;51.368;6.782;2023-04-23T09:28:35;100343.88;;;15.67;100.00
9257;BME280;4665;51.368;6.782;2023-04-23T09:31:01;100344.53;;;15.69;100.00
9257;BME280;4665;51.368;6.782;2023-04-23T09:33:30;100339.41;;;15.74;100.00
9257;BME280;4665;51.368;6.782;2023-04-23T09:35:57;100317.03;;;15.67;100.00
9257;BME280;4665;51.368;6.782;2023-04-23T09:38:22;100307.50;;;15.57;100.00
9257;BME280;4665;51.368;6.782;2023-04-23T09:40:49;100298.44;;;15.65;100.00
9257;BME280;4665;51.368;6.782;2023-04-23T09:43:14;100306.38;;;15.73;100.00
9257;BME280;4665;51.368;6.782;2023-04-23T09:45:47;100312.56;;;15.74;100.00
9257;BME280;4665;51.368;6.782;2023-04-23T09:48:13;100314.75;;;15.64;100.00
9257;BME280;4665;51.368;6.782;2023-04-23T09:50:39;100315.19;;;15.67;100.00
9257;BME280;4665;51.368;6.782;2023-04-23T09:53:08;100318.56;;;15.83;100.00
9257;BME280;4665;51.368;6.782;2023-04-23T09:55:35;100320.50;;;15.95;100.00
9257;BME280;4665;51.368;6.782;2023-04-23T09:58:09;100319.69;;;16.02;100.00
9257;BME280;4665;51.368;6.782;2023-04-23T10:00:36;100307.28;;;16.01;100.00
9257;BME280;4665;51.368;6.782;2023-04-23T10:03:02;100320.56;;;16.15;100.00
9257;BME280;4665;51.368;6.782;2023-04-23T10:05:28;100309.00;;;16.28;100.00
9257;BME280;4665;51.368;6.782;2023-04-23T10:07:54;100285.25;;;16.32;100.00
9257;BME280;4665;51.368;6.782;2023-04-23T10:10:21;100299.13;;;16.49;100.00
9257;BME280;4665;51.368;6.782;2023-04-23T10:12:46;100308.03;;;16.56;100.00
9257;BME280;4665;51.368;6.782;2023-04-23T10:15:12;100286.72;;;16.34;100.00
9257;BME280;4665;51.368;6.782;2023-04-23T10:17:39;100282.75;;;16.30;100.00
9257;BME280;4665;51.368;6.782;2023-04-23T10:20:06;100296.22;;;16.37;100.00
9257;BME280;4665;51.368;6.782;2023-04-23T10:22:34;100264.34;;;16.20;100.00
9257;BME280;4665;51.368;6.782;2023-04-23T10:25:04;100270.13;;;16.24;100.00
9257;BME280;4665;51.368;6.782;2023-04-23T10:27:36;100291.47;;;16.46;100.00
9257;BME280;4665;51.368;6.782;2023-04-23T10:30:04;100288.78;;;16.59;100.00
9257;BME280;4665;51.368;6.782;2023-04-23T10:32:30;100269.13;;;16.45;100.00
9257;BME280;4665;51.368;6.782;2023-04-23T10:34:57;100271.59;;;16.33;100.00
9257;BME280;4665;51.368;6.782;2023-04-23T10:37:23;100278.41;;;16.23;100.00
9257;BME280;4665;51.368;6.782;2023-04-23T10:39:53;100269.69;;;16.07;100.00
9257;BME280;4665;51.368;6.782;2023-04-23T10:42:19;100274.84;;;16.02;100.00
9257;BME280;4665;51.368;6.782;2023-04-23T10:44:45;100261.19;;;15.90;100.00
9257;BME280;4665;51.368;6.782;2023-04-23T10:47:13;100259.50;;;15.89;100.00
9257;BME280;4665;51.368;6.782;2023-04-23T10:49:39;100257.03;;;15.81;100.00
9257;BME280;4665;51.368;6.782;2023-04-23T10:52:17;100265.28;;;15.86;100.00
9257;BME280;4665;51.368;6.782;2023-04-23T10:55:04;100259.69;;;15.74;100.00
9257;BME280;4665;51.368;6.782;2023-04-23T10:57:28;100273.75;;;15.83;100.00
9257;BME280;4665;51.368;6.782;2023-04-23T10:59:54;100255.13;;;15.75;100.00
9257;BME280;4665;51.368;6.782;2023-04-23T11:02:22;100250.81;;;15.74;100.00
9257;BME280;4665;51.368;6.782;2023-04-23T11:04:56;100231.75;;;15.69;100.00
9257;BME280;4665;51.368;6.782;2023-04-23T11:07:28;100231.59;;;15.77;100.00
9257;BME280;4665;51.368;6.782;2023-04-23T11:09:57;100232.88;;;15.88;100.00
9257;BME280;4665;51.368;6.782;2023-04-23T11:14:50;100232.50;;;16.04;100.00
9257;BME280;4665;51.368;6.782;2023-04-23T11:17:17;100242.44;;;16.17;100.00
9257;BME280;4665;51.368;6.782;2023-04-23T11:22:42;100232.31;;;16.26;100.00
9257;BME280;4665;51.368;6.782;2023-04-23T11:25:13;100236.66;;;16.33;100.00
9257;BME280;4665;51.368;6.782;2023-04-23T11:27:42;100217.03;;;16.39;100.00
9257;BME280;4665;51.368;6.782;2023-04-23T11:30:11;100213.91;;;16.42;100.00
9257;BME280;4665;51.368;6.782;2023-04-23T11:32:38;100207.31;;;16.52;100.00
9257;BME280;4665;51.368;6.782;2023-04-23T11:35:06;100205.25;;;16.54;100.00
9257;BME280;4665;51.368;6.782;2023-04-23T11:37:32;100204.41;;;16.47;100.00
9257;BME280;4665;51.368;6.782;2023-04-23T11:40:05;100203.16;;;16.42;100.00
9257;BME280;4665;51.368;6.782;2023-04-23T11:42:40;100207.72;;;16.42;100.00
9257;BME280;4665;51.368;6.782;2023-04-23T11:45:06;100200.28;;;16.37;100.00
9257;BME280;4665;51.368;6.782;2023-04-23T11:47:33;100198.22;;;16.39;100.00
9257;BME280;4665;51.368;6.782;2023-04-23T11:50:00;100186.63;;;16.39;100.00
9257;BME280;4665;51.368;6.782;2023-04-23T11:52:25;100186.41;;;16.40;100.00
9257;BME280;4665;51.368;6.782;2023-04-23T11:54:50;100191.41;;;16.50;100.00
9257;BME280;4665;51.368;6.782;2023-04-23T11:57:16;100189.09;;;16.54;100.00
9257;BME280;4665;51.368;6.782;2023-04-23T11:59:41;100159.53;;;16.47;100.00
9257;BME280;4665;51.368;6.782;2023-04-23T12:02:07;100159.97;;;16.51;100.00
9257;BME280;4665;51.368;6.782;2023-04-23T12:04:32;100160.56;;;16.59;100.00
9257;BME280;4665;51.368;6.782;2023-04-23T12:06:58;100172.94;;;16.87;100.00
9257;BME280;4665;51.368;6.782;2023-04-23T12:09:26;100160.53;;;16.86;100.00
9257;BME280;4665;51.368;6.782;2023-04-23T12:11:51;100148.53;;;16.75;100.00
9257;BME280;4665;51.368;6.782;2023-04-23T12:14:19;100156.84;;;16.80;100.00
9257;BME280;4665;51.368;6.782;2023-04-23T12:16:48;100138.81;;;16.68;100.00
9257;BME280;4665;51.368;6.782;2023-04-23T12:19:24;100132.84;;;16.59;100.00
9257;BME280;4665;51.368;6.782;2023-04-23T12:21:52;100130.59;;;16.56;100.00
9257;BME280;4665;51.368;6.782;2023-04-23T12:24:20;100121.69;;;16.55;100.00
9257;BME280;4665;51.368;6.782;2023-04-23T12:26:51;100120.88;;;16.55;100.00
9257;BME280;4665;51.368;6.782;2023-04-23T12:29:19;100118.34;;;16.73;100.00
9257;BME280;4665;51.368;6.782;2023-04-23T12:31:45;100146.00;;;17.00;100.00
9257;BME280;4665;51.368;6.782;2023-04-23T12:34:12;100118.09;;;16.95;100.00
9257;BME280;4665;51.368;6.782;2023-04-23T12:36:38;100105.28;;;16.97;100.00
9257;BME280;4665;51.368;6.782;2023-04-23T12:39:28;100128.78;;;17.15;100.00
9257;BME280;4665;51.368;6.782;2023-04-23T12:41:56;100127.94;;;17.21;100.00
9257;BME280;4665;51.368;6.782;2023-04-23T12:44:24;100115.13;;;17.16;100.00
9257;BME280;4665;51.368;6.782;2023-04-23T12:47:09;100113.19;;;17.30;100.00
9257;BME280;4665;51.368;6.782;2023-04-23T12:49:40;100109.34;;;17.51;97.70
9257;BME280;4665;51.368;6.782;2023-04-23T12:52:06;100106.63;;;17.58;83.42
9257;BME280;4665;51.368;6.782;2023-04-23T12:54:36;100100.38;;;17.64;84.71
9257;BME280;4665;51.368;6.782;2023-04-23T12:57:03;100099.44;;;17.83;89.44
9257;BME280;4665;51.368;6.782;2023-04-23T12:59:29;100082.41;;;17.90;97.18
9257;BME280;4665;51.368;6.782;2023-04-23T13:01:55;100103.94;;;18.15;100.00
9257;BME280;4665;51.368;6.782;2023-04-23T13:04:21;100080.56;;;18.08;78.32
9257;BME280;4665;51.368;6.782;2023-04-23T13:06:47;100085.19;;;18.01;77.06
9257;BME280;4665;51.368;6.782;2023-04-23T13:09:13;100078.09;;;17.82;68.37